• Join FlightAware (Why Join?)
  • Login
  • US Flag 
02:18AM EDT


 

Airport Tracker/Info


-or-


 

Live Flight TrackerFlight Track Log ✈ UAL5832 ✈ 10-Apr-2013 ✈ KORD - KBNA

Flight Track Log - Related Links

Times and Time Zones

All times are in EDT time to prevent confusion due to time zone crossing. See the UAL5832 flight status page for this flight to view local times or setup timezone preferences in your user account.

Time Position Orientation Groundspeed Altitude Reporting Facility
EDT Latitude Longitude Course Direction KTS MPH feet Rate Location/Type
10:59PM 42.0000 -87.8833 109° East 158 182 2,400  Level Chicago TRACON
11:00PM 41.9833 -87.8167 109° East 252 290 4,700 840 Climbing Chicago TRACON
11:02PM 41.8550 -87.8158 180° South 269 310 5,000 720 Climbing Chicago Center
11:03PM 41.7819 -87.8256 186° South 268 308 6,900 2,700 Climbing Chicago Center
11:04PM 41.7067 -87.8350 185° South 271 312 10,600 3,240 Climbing Chicago Center
11:05PM 41.6169 -87.8361 181° South 270 311 13,600 2,580 Climbing Chicago Center
11:06PM 41.5378 -87.8242 174° South 284 327 16,000 2,340 Climbing Chicago Center
11:07PM 41.4603 -87.8047 169° South 295 339 18,500 2,400 Climbing Chicago Center
11:08PM 41.3953 -87.7297 139° Southeast 308 354 21,000 2,220 Climbing Chicago Center
11:09PM 41.3247 -87.6692 147° Southeast 302 348 23,100 1,920 Climbing Chicago Center
11:10PM 41.2525 -87.6081 148° Southeast 305 351 25,000 1,680 Climbing Chicago Center
11:11PM 41.1744 -87.5700 160° South 307 353 26,600 1,200 Climbing Chicago Center
11:12PM 41.0847 -87.5625 176° South 319 367 27,500 1,080 Climbing Chicago Center
11:13PM 40.9911 -87.5531 176° South 335 386 28,900 1,320 Climbing Chicago Center
11:14PM 40.8950 -87.5453 176° South 342 394 30,300 1,320 Climbing Chicago Center
11:15PM 40.7781 -87.5364 177° South 351 404 31,700 1,200 Climbing Chicago Center
11:16PM 40.6794 -87.5281 176° South 355 409 32,800 1,080 Climbing Chicago Center
11:17PM 40.5789 -87.5203 177° South 361 415 34,000 1,020 Climbing Chicago Center
11:18PM 40.4764 -87.5111 176° South 368 423 35,000 480 Climbing Chicago Center
11:19PM 40.3703 -87.5042 177° South 378 435 35,000  Level Chicago Center
11:20PM 40.2558 -87.4925 176° South 404 465 35,000  Level Chicago Center
11:21PM 40.1406 -87.4808 176° South 416 479 35,000  Level Chicago Center
11:22PM 40.0714 -87.4742 176° South 415 478 35,000  Level Indianapolis Center
11:23PM 39.9353 -87.4639 177° South 408 470 35,000  Level Indianapolis Center
11:24PM 39.8197 -87.4536 176° South 412 474 35,000  Level Indianapolis Center
11:25PM 39.7039 -87.4442 176° South 414 476 35,000  Level Indianapolis Center
11:26PM 39.5878 -87.4353 177° South 416 479 35,000  Level Indianapolis Center
11:27PM 39.4739 -87.4250 176° South 411 473 35,000  Level Indianapolis Center
11:28PM 39.3583 -87.4169 177° South 413 475 35,000  Level Indianapolis Center
11:29PM 39.2425 -87.4064 176° South 414 476 35,000  Level Indianapolis Center
11:30PM 39.1275 -87.3969 176° South 414 476 35,000  Level Indianapolis Center
11:31PM 39.0142 -87.3886 177° South 408 470 35,000  Level Indianapolis Center
11:32PM 38.8986 -87.3789 176° South 413 475 35,000  Level Indianapolis Center
11:33PM 38.7808 -87.3697 177° South 420 483 35,000  Level Indianapolis Center
11:34PM 38.6617 -87.3589 176° South 426 490 35,000  Level Indianapolis Center
11:35PM 38.5222 -87.3486 177° South 420 483 35,000  Level Indianapolis Center
11:36PM 38.4078 -87.3397 177° South 414 476 35,000 -420 Level Indianapolis Center
11:37PM 38.2936 -87.3328 177° South 416 479 34,200 -900 Descending Indianapolis Center
11:38PM 38.1758 -87.3233 176° South 428 493 33,200 -1,080 Descending Indianapolis Center
11:39PM 38.0594 -87.3128 176° South 424 488 32,100 -1,080 Descending Indianapolis Center
11:40PM 37.9475 -87.3028 176° South 409 471 31,100 -600 Descending Indianapolis Center
11:41PM 37.8361 -87.2950 177° South 401 461 30,900 -720 Descending Indianapolis Center
11:42PM 37.7183 -87.2853 176° South 404 465 29,700 -1,740 Descending Indianapolis Center
11:43PM 37.6097 -87.2781 177° South 390 449 27,400 -2,220 Descending Indianapolis Center
11:44PM 37.5058 -87.2694 176° South 373 429 25,200 -1,980 Descending Indianapolis Center
11:45PM 37.4050 -87.2617 176° South 361 415 23,400 -1,080 Descending Indianapolis Center
11:46PM 37.2842 -87.2364 171° South 374 430 22,900 -1,500 Descending Memphis Center
11:47PM 37.1919 -87.2114 168° South 350 403 20,300 -1,920 Descending Memphis Center
11:48PM 37.0892 -87.1817 167° South 345 397 19,100 -1,200 Descending Memphis Center
11:49PM 36.9967 -87.1517 165° South 345 397 18,000 -1,500 Descending Memphis Center
11:50PM 36.9000 -87.1244 167° South 345 397 16,200 -1,500 Descending Memphis Center
11:51PM 36.8581 -87.1131 168° South 357 411 15,800 -900 Descending Memphis Center
11:51PM 36.8097 -87.0969 165° South 345 397 15,300 -1,320 Descending Memphis Center
11:52PM 36.7336 -87.0483 153° Southeast 323 372 13,800 -1,500 Descending Memphis Center
11:53PM 36.6611 -86.9917 148° Southeast 312 359 12,300 -1,440 Descending Memphis Center
11:54PM 36.5867 -86.9353 149° Southeast 317 365 11,000 -1,020 Descending Memphis Center
11:55PM 36.5228 -86.8864 148° Southeast 289 333 10,300 -1,260 Descending Memphis Center
11:56PM 36.4631 -86.8425 149° Southeast 265 305 8,500 -1,800 Descending Memphis Center
11:57PM 36.4119 -86.8036 149° Southeast 252 290 6,800 -1,800 Descending Memphis Center
11:58PM 36.3544 -86.7622 150° Southeast 245 282 4,900 -1,800 Descending Memphis Center
11:59PM 36.2969 -86.7186 149° Southeast 232 267 3,200 -1,080 Descending Memphis Center
12:00AM 36.2500 -86.6819 148° Southeast 218 251 2,800 -600 Descending Memphis Center
12:01AM 36.2097 -86.6556 152° Southeast 191 220 2,000 -720 Descending Memphis Center
12:02AM 36.1764 -86.6622 189° South 136 157 1,400 -600 Descending Memphis Center
12:03AM 36.1456 -86.6764 200° South 120 138 800 -360 Descending Memphis Center
12:04AM 36.1167 -86.6853 194° South 120 138 700 4,080 Descending Memphis Center
12:05AM 36.0858 -86.6997 201° Southwest 120 138 9,000 8,280 Climbing Memphis Center
12:07AM 36.1167 -86.6667 90° East  Level FlightAware Approximate
12:14AM 36.1245 -86.6782 90° East  Level Estimated
12:15AM 36.1245 -86.6782 90° East  Level Estimated
12:16AM 36.1245 -86.6782 90° East  Level Estimated
12:17AM 36.1245 -86.6782 90° East  Level Estimated